Time;durP1;ratioP1;P1;durP2;ratioP2;P2;SDS_P1;SDS_P2;PMS_P1;PMS_P2;Temp;Humidity;BMP_temperature;BMP_pressure;BME280_temperature;BME280_humidity;BME280_pressure;Samples;Min_cycle;Max_cycle;Signal;HPM_P1;HPM_P2
2024/02/25 00:00:20;;;;;;;0.20;0.20;;;;;;;;;;5026197;28;60152;-75
2024/02/25 00:02:45;;;;;;;0.40;0.40;;;;;;;;;;5027668;28;60121;-77
2024/02/25 00:05:11;;;;;;;0.28;0.28;;;;;;;;;;5027116;28;58596;-76
2024/02/25 00:07:36;;;;;;;0.38;0.38;;;;;;;;;;5024992;28;60295;-77
2024/02/25 00:10:04;;;;;;;0.33;0.20;;;;;;;;;;5025731;28;58455;-77
2024/02/25 00:12:30;;;;;;;0.73;0.43;;;;;;;;;;5025755;28;59289;-77
2024/02/25 00:14:55;;;;;;;0.33;0.33;;;;;;;;;;5026537;27;59140;-76
2024/02/25 00:17:20;;;;;;;0.67;0.40;;;;;;;;;;5027918;28;58661;-75
2024/02/25 00:19:45;;;;;;;0.40;0.40;;;;;;;;;;5025798;28;59744;-77
2024/02/25 00:22:10;;;;;;;0.33;0.33;;;;;;;;;;5025494;28;58465;-76
2024/02/25 00:24:35;;;;;;;0.40;0.40;;;;;;;;;;5022291;28;58428;-78
2024/02/25 00:27:00;;;;;;;0.43;0.43;;;;;;;;;;5013485;28;58646;-76
2024/02/25 00:29:26;;;;;;;0.25;0.20;;;;;;;;;;5018035;28;58620;-75
2024/02/25 00:31:51;;;;;;;0.27;0.27;;;;;;;;;;5024217;28;60193;-75
2024/02/25 00:34:16;;;;;;;0.30;0.30;;;;;;;;;;5023330;28;58824;-75
2024/02/25 00:36:41;;;;;;;0.38;0.30;;;;;;;;;;5024871;28;58346;-76
2024/02/25 00:39:07;;;;;;;0.50;0.33;;;;;;;;;;5025891;28;59195;-77
2024/02/25 00:41:32;;;;;;;0.40;0.40;;;;;;;;;;5012242;28;59075;-76
2024/02/25 00:43:58;;;;;;;0.50;0.50;;;;;;;;;;5026480;28;58450;-77
2024/02/25 00:46:23;;;;;;;0.30;0.30;;;;;;;;;;5011799;28;59179;-76
2024/02/25 00:48:48;;;;;;;0.30;0.30;;;;;;;;;;5007285;28;59180;-76
2024/02/25 00:51:13;;;;;;;0.40;0.40;;;;;;;;;;5007798;28;58429;-77
2024/02/25 00:53:38;;;;;;;0.60;0.60;;;;;;;;;;5027376;28;59709;-76
2024/02/25 00:56:04;;;;;;;0.20;0.20;;;;;;;;;;5015744;28;58619;-76
2024/02/25 00:58:29;;;;;;;0.25;0.25;;;;;;;;;;5017584;28;59482;-77
2024/02/25 01:00:54;;;;;;;0.73;0.20;;;;;;;;;;5019916;28;58822;-72
2024/02/25 01:03:19;;;;;;;0.20;0.20;;;;;;;;;;5024308;28;58535;-72
2024/02/25 01:05:44;;;;;;;0.20;0.20;;;;;;;;;;5014801;28;59400;-72
2024/02/25 01:08:10;;;;;;;0.13;0.13;;;;;;;;;;5029349;28;58655;-72
2024/02/25 01:10:35;;;;;;;0.20;0.20;;;;;;;;;;5029982;28;58417;-76
2024/02/25 01:13:00;;;;;;;0.30;0.30;;;;;;;;;;5027818;28;59127;-76
2024/02/25 01:15:25;;;;;;;0.30;0.30;;;;;;;;;;5029471;28;58233;-77
2024/02/25 01:17:50;;;;;;;0.30;0.27;;;;;;;;;;5027873;27;60322;-77
2024/02/25 01:20:16;;;;;;;0.20;0.20;;;;;;;;;;5031725;28;58704;-76
2024/02/25 01:22:41;;;;;;;0.20;0.20;;;;;;;;;;5019595;28;58571;-77
2024/02/25 01:25:07;;;;;;;0.30;0.30;;;;;;;;;;5018079;28;58966;-76
2024/02/25 01:27:32;;;;;;;0.20;0.20;;;;;;;;;;5016561;28;59035;-76
2024/02/25 01:29:57;;;;;;;0.20;0.20;;;;;;;;;;5017547;28;58619;-77
2024/02/25 01:32:22;;;;;;;0.40;0.40;;;;;;;;;;5042200;28;59402;-77
2024/02/25 01:34:49;;;;;;;0.20;0.20;;;;;;;;;;5012543;28;58310;-77
2024/02/25 01:37:15;;;;;;;0.22;0.22;;;;;;;;;;5012650;28;59530;-77
2024/02/25 01:39:40;;;;;;;0.07;0.07;;;;;;;;;;5018423;28;59566;-76
2024/02/25 01:42:05;;;;;;;0.30;0.30;;;;;;;;;;5015287;28;58477;-76
2024/02/25 01:44:30;;;;;;;0.20;0.20;;;;;;;;;;5029426;28;59169;-76
2024/02/25 01:46:56;;;;;;;0.17;0.17;;;;;;;;;;5027688;28;59989;-76
2024/02/25 01:49:21;;;;;;;0.40;0.40;;;;;;;;;;5021270;28;58368;-76
2024/02/25 01:51:47;;;;;;;0.63;0.30;;;;;;;;;;5020663;28;58543;-77
2024/02/25 01:54:12;;;;;;;0.40;0.40;;;;;;;;;;5025682;28;58949;-75
2024/02/25 01:56:37;;;;;;;0.20;0.20;;;;;;;;;;5017981;28;59389;-76
2024/02/25 01:59:03;;;;;;;0.50;0.50;;;;;;;;;;5019087;28;58395;-76
2024/02/25 02:01:29;;;;;;;0.47;0.30;;;;;;;;;;5026539;28;58345;-76
2024/02/25 02:03:54;;;;;;;0.20;0.20;;;;;;;;;;5024892;28;59359;-76
2024/02/25 02:06:19;;;;;;;0.30;0.30;;;;;;;;;;5017163;28;58926;-77
2024/02/25 02:08:44;;;;;;;0.10;0.10;;;;;;;;;;5016214;28;58457;-77
2024/02/25 02:11:16;;;;;;;0.30;0.30;;;;;;;;;;5008585;28;58752;-77
2024/02/25 02:13:41;;;;;;;0.40;0.40;;;;;;;;;;5017304;28;59021;-77
2024/02/25 02:16:08;;;;;;;0.20;0.20;;;;;;;;;;5025739;28;58764;-76
2024/02/25 02:19:10;;;;;;;1.10;0.57;;;;;;;;;;5027437;28;58563;-76
2024/02/25 02:21:36;;;;;;;0.20;0.20;;;;;;;;;;5028389;27;58509;-72
2024/02/25 02:24:01;;;;;;;0.30;0.30;;;;;;;;;;5030819;28;58576;-72
2024/02/25 02:26:26;;;;;;;0.30;0.30;;;;;;;;;;5026545;28;60119;-72
2024/02/25 02:28:51;;;;;;;0.10;0.10;;;;;;;;;;5029496;28;58514;-72
2024/02/25 02:31:17;;;;;;;0.10;0.10;;;;;;;;;;5015561;28;59117;-72
2024/02/25 02:33:42;;;;;;;0.20;0.20;;;;;;;;;;5014228;28;59743;-72
2024/02/25 02:36:07;;;;;;;0.20;0.20;;;;;;;;;;5026137;28;59252;-72
2024/02/25 02:38:32;;;;;;;0.30;0.30;;;;;;;;;;5027352;28;60605;-74
2024/02/25 02:40:58;;;;;;;0.27;0.27;;;;;;;;;;5018321;28;58536;-72
2024/02/25 02:43:23;;;;;;;0.60;0.28;;;;;;;;;;5026230;28;58497;-72
2024/02/25 02:45:50;;;;;;;0.30;0.30;;;;;;;;;;5020909;28;58822;-73
2024/02/25 02:48:16;;;;;;;0.10;0.10;;;;;;;;;;5014558;28;58427;-72
2024/02/25 02:50:41;;;;;;;0.10;0.10;;;;;;;;;;5021297;28;59370;-72
2024/02/25 02:53:06;;;;;;;1.03;0.70;;;;;;;;;;5026231;28;58660;-71
2024/02/25 02:55:32;;;;;;;0.30;0.30;;;;;;;;;;5019408;28;58463;-72
2024/02/25 02:57:57;;;;;;;0.10;0.10;;;;;;;;;;5021114;28;60483;-72
2024/02/25 03:00:22;;;;;;;0.30;0.30;;;;;;;;;;5026172;28;59149;-72
2024/02/25 03:02:47;;;;;;;0.13;0.13;;;;;;;;;;5015443;28;58493;-72
2024/02/25 03:05:12;;;;;;;0.10;0.10;;;;;;;;;;5026882;28;58450;-72
2024/02/25 03:07:37;;;;;;;0.23;0.20;;;;;;;;;;5020702;28;58469;-72
2024/02/25 03:10:04;;;;;;;0.20;0.20;;;;;;;;;;5024199;28;58549;-72
2024/02/25 03:12:29;;;;;;;0.10;0.10;;;;;;;;;;5023983;28;58575;-72
2024/02/25 03:14:55;;;;;;;0.10;0.10;;;;;;;;;;5018287;28;58536;-72
2024/02/25 03:17:20;;;;;;;0.28;0.28;;;;;;;;;;5015235;28;58847;-72
2024/02/25 03:19:46;;;;;;;0.10;0.10;;;;;;;;;;5008257;28;58845;-72
2024/02/25 03:22:11;;;;;;;0.13;0.13;;;;;;;;;;5019495;28;59787;-72
2024/02/25 03:24:36;;;;;;;0.10;0.10;;;;;;;;;;5021995;28;58516;-72
2024/02/25 03:27:02;;;;;;;0.20;0.17;;;;;;;;;;5017729;28;58341;-71
2024/02/25 03:29:27;;;;;;;0.20;0.20;;;;;;;;;;5015468;28;59625;-72
2024/02/25 03:31:52;;;;;;;0.10;0.10;;;;;;;;;;5025441;28;58475;-73
2024/02/25 03:34:17;;;;;;;0.30;0.20;;;;;;;;;;5025520;28;58223;-73
2024/02/25 03:36:43;;;;;;;0.20;0.20;;;;;;;;;;5022866;28;58851;-72
2024/02/25 03:39:08;;;;;;;0.17;0.17;;;;;;;;;;5015435;28;58377;-72
2024/02/25 03:41:33;;;;;;;0.10;0.10;;;;;;;;;;5006302;28;58485;-72
2024/02/25 03:43:58;;;;;;;0.00;0.00;;;;;;;;;;5023329;28;58683;-72
2024/02/25 03:46:23;;;;;;;0.20;0.20;;;;;;;;;;5027333;28;58385;-72
2024/02/25 03:48:48;;;;;;;0.10;0.10;;;;;;;;;;5021081;28;59236;-72
2024/02/25 03:51:13;;;;;;;0.30;0.30;;;;;;;;;;5017457;28;58307;-71
2024/02/25 03:53:39;;;;;;;0.15;0.15;;;;;;;;;;5028406;28;58413;-72
2024/02/25 03:56:04;;;;;;;0.10;0.10;;;;;;;;;;5026865;28;58952;-73
2024/02/25 03:58:29;;;;;;;0.10;0.10;;;;;;;;;;5020171;28;58621;-72
2024/02/25 04:00:55;;;;;;;0.20;0.20;;;;;;;;;;5018275;28;58458;-72
2024/02/25 04:03:20;;;;;;;0.10;0.03;;;;;;;;;;5017285;28;59385;-73
2024/02/25 04:05:45;;;;;;;1.00;0.32;;;;;;;;;;5012916;28;58555;-73
2024/02/25 04:08:11;;;;;;;0.30;0.30;;;;;;;;;;5014970;28;59470;-73
2024/02/25 04:10:36;;;;;;;0.20;0.20;;;;;;;;;;5013070;28;58678;-72
2024/02/25 04:13:01;;;;;;;0.13;0.13;;;;;;;;;;5019742;28;58307;-73
2024/02/25 04:15:27;;;;;;;0.30;0.30;;;;;;;;;;5022810;28;60262;-73
2024/02/25 04:17:52;;;;;;;0.20;0.20;;;;;;;;;;5014433;28;59745;-72
2024/02/25 04:20:17;;;;;;;0.20;0.20;;;;;;;;;;5017305;28;58457;-72
2024/02/25 04:22:43;;;;;;;0.20;0.20;;;;;;;;;;5015052;28;59343;-72
2024/02/25 04:25:09;;;;;;;0.10;0.10;;;;;;;;;;5019553;28;59904;-72
2024/02/25 04:27:34;;;;;;;0.10;0.10;;;;;;;;;;5024892;28;58563;-72
2024/02/25 04:29:59;;;;;;;0.20;0.20;;;;;;;;;;5026303;28;59037;-78
2024/02/25 04:32:25;;;;;;;0.20;0.20;;;;;;;;;;5028430;28;58383;-77
2024/02/25 04:34:50;;;;;;;0.10;0.10;;;;;;;;;;5023446;28;58692;-77
2024/02/25 04:37:15;;;;;;;0.45;0.22;;;;;;;;;;5025488;28;58642;-77
2024/02/25 04:39:41;;;;;;;0.10;0.00;;;;;;;;;;5025205;28;58242;-77
2024/02/25 04:42:06;;;;;;;0.20;0.20;;;;;;;;;;5032354;28;59434;-77
2024/02/25 04:44:31;;;;;;;0.15;0.15;;;;;;;;;;5031356;28;58571;-78
2024/02/25 04:46:57;;;;;;;0.20;0.20;;;;;;;;;;5033702;27;58390;-77
2024/02/25 04:49:22;;;;;;;0.20;0.20;;;;;;;;;;5031135;28;59193;-77
2024/02/25 04:51:48;;;;;;;0.20;0.20;;;;;;;;;;5030761;28;58444;-78
2024/02/25 04:54:15;;;;;;;0.10;0.10;;;;;;;;;;5033503;28;59492;-76
2024/02/25 04:56:40;;;;;;;0.10;0.10;;;;;;;;;;5035055;28;59943;-77
2024/02/25 04:59:05;;;;;;;0.17;0.17;;;;;;;;;;5032776;28;58418;-77
2024/02/25 05:01:31;;;;;;;0.17;0.17;;;;;;;;;;5033712;28;60214;-77
2024/02/25 05:03:56;;;;;;;0.20;0.20;;;;;;;;;;5024545;28;58947;-77
2024/02/25 05:06:21;;;;;;;0.20;0.20;;;;;;;;;;5019870;28;58698;-77
2024/02/25 05:08:46;;;;;;;0.30;0.20;;;;;;;;;;5019360;28;59467;-77
2024/02/25 05:11:12;;;;;;;0.10;0.10;;;;;;;;;;5022304;28;58387;-77
2024/02/25 05:13:37;;;;;;;0.20;0.10;;;;;;;;;;5011408;28;60397;-77
2024/02/25 05:16:06;;;;;;;0.20;0.20;;;;;;;;;;5014642;28;58468;-77
2024/02/25 05:18:31;;;;;;;0.10;0.10;;;;;;;;;;5024942;28;58398;-75
2024/02/25 05:20:56;;;;;;;0.10;0.10;;;;;;;;;;5031105;28;59485;-77
2024/02/25 05:23:21;;;;;;;0.10;0.10;;;;;;;;;;5023352;28;58722;-75
2024/02/25 05:25:47;;;;;;;0.20;0.20;;;;;;;;;;5027686;28;58431;-77
2024/02/25 05:28:12;;;;;;;0.10;0.10;;;;;;;;;;5027974;28;59272;-77
2024/02/25 05:30:37;;;;;;;0.10;0.10;;;;;;;;;;5022549;28;58459;-77
2024/02/25 05:33:03;;;;;;;0.10;0.10;;;;;;;;;;5032190;28;58413;-77
2024/02/25 05:35:28;;;;;;;0.10;0.10;;;;;;;;;;5021246;28;58918;-77
2024/02/25 05:37:53;;;;;;;0.10;0.10;;;;;;;;;;5024077;28;58489;-76
2024/02/25 05:40:19;;;;;;;0.28;0.20;;;;;;;;;;5031443;28;59506;-78
2024/02/25 05:42:44;;;;;;;0.30;0.20;;;;;;;;;;5030432;27;58260;-77
2024/02/25 05:45:11;;;;;;;0.10;0.10;;;;;;;;;;5033209;28;58392;-77
2024/02/25 05:47:36;;;;;;;0.10;0.10;;;;;;;;;;5022006;28;59419;-76
2024/02/25 05:50:01;;;;;;;0.10;0.10;;;;;;;;;;5031929;28;58750;-74
2024/02/25 05:52:27;;;;;;;0.10;0.10;;;;;;;;;;5030125;28;59382;-72
2024/02/25 05:54:52;;;;;;;0.00;0.00;;;;;;;;;;5023852;28;58387;-72
2024/02/25 05:57:17;;;;;;;0.13;0.13;;;;;;;;;;5020951;28;58423;-72
2024/02/25 05:59:44;;;;;;;0.20;0.20;;;;;;;;;;5027925;28;59567;-73
2024/02/25 06:02:09;;;;;;;0.10;0.10;;;;;;;;;;5030428;27;58429;-72
2024/02/25 06:04:37;;;;;;;0.77;0.40;;;;;;;;;;5020721;28;58432;-72
2024/02/25 06:07:03;;;;;;;0.10;0.10;;;;;;;;;;5014745;28;58656;-73
2024/02/25 06:09:28;;;;;;;0.10;0.10;;;;;;;;;;5015388;28;60019;-72
2024/02/25 06:11:53;;;;;;;0.20;0.20;;;;;;;;;;5025846;27;58241;-73
2024/02/25 06:14:19;;;;;;;0.10;0.10;;;;;;;;;;5029331;28;59764;-73
2024/02/25 06:16:44;;;;;;;0.25;0.20;;;;;;;;;;5029224;28;58472;-73
2024/02/25 06:19:10;;;;;;;0.17;0.17;;;;;;;;;;5023883;28;58544;-72
2024/02/25 06:21:35;;;;;;;0.10;0.10;;;;;;;;;;5015636;28;58508;-72
2024/02/25 06:24:00;;;;;;;0.10;0.10;;;;;;;;;;5015689;28;58699;-73
2024/02/25 06:26:26;;;;;;;0.10;0.10;;;;;;;;;;5028952;28;58553;-72
2024/02/25 06:28:53;;;;;;;0.10;0.10;;;;;;;;;;5017414;28;59814;-72
2024/02/25 06:31:18;;;;;;;0.10;0.10;;;;;;;;;;5026066;28;58493;-73
2024/02/25 06:33:43;;;;;;;0.30;0.30;;;;;;;;;;5023256;28;59255;-73
2024/02/25 06:36:17;;;;;;;0.10;0.10;;;;;;;;;;5018064;28;58383;-72
2024/02/25 06:38:42;;;;;;;0.22;0.17;;;;;;;;;;5017510;28;59113;-72
2024/02/25 06:41:15;;;;;;;0.10;0.10;;;;;;;;;;5016625;28;58776;-73
2024/02/25 06:43:40;;;;;;;0.32;0.20;;;;;;;;;;5026128;28;58363;-72
2024/02/25 06:46:05;;;;;;;0.27;0.27;;;;;;;;;;5021295;28;58387;-72
2024/02/25 06:48:31;;;;;;;0.10;0.10;;;;;;;;;;5020583;28;58984;-73
2024/02/25 06:50:56;;;;;;;0.10;0.10;;;;;;;;;;5027489;27;58407;-77
2024/02/25 06:53:21;;;;;;;0.10;0.10;;;;;;;;;;5028915;28;58510;-77
2024/02/25 06:55:46;;;;;;;0.00;0.00;;;;;;;;;;5027302;28;58653;-75
2024/02/25 06:58:11;;;;;;;0.13;0.13;;;;;;;;;;5021702;28;58414;-78
2024/02/25 07:00:38;;;;;;;0.27;0.27;;;;;;;;;;5014798;28;59287;-76
2024/02/25 07:03:03;;;;;;;0.15;0.15;;;;;;;;;;5017931;28;58533;-77
2024/02/25 07:05:28;;;;;;;0.83;0.40;;;;;;;;;;5018133;28;58605;-76
2024/02/25 07:07:53;;;;;;;0.20;0.20;;;;;;;;;;5025943;28;58533;-76
2024/02/25 07:10:20;;;;;;;0.15;0.10;;;;;;;;;;5029756;28;58508;-77
2024/02/25 07:12:45;;;;;;;0.17;0.17;;;;;;;;;;5020747;28;59943;-77
2024/02/25 07:15:10;;;;;;;0.10;0.10;;;;;;;;;;5013298;28;60432;-77
2024/02/25 07:17:38;;;;;;;0.35;0.20;;;;;;;;;;5008128;28;58431;-77
2024/02/25 07:20:03;;;;;;;0.20;0.20;;;;;;;;;;5005793;28;58455;-77
2024/02/25 07:22:29;;;;;;;0.30;0.30;;;;;;;;;;5014044;28;58358;-77
2024/02/25 07:24:54;;;;;;;0.28;0.28;;;;;;;;;;5018429;28;58518;-76
2024/02/25 07:27:19;;;;;;;0.15;0.13;;;;;;;;;;5019016;28;58315;-77
2024/02/25 07:29:44;;;;;;;0.20;0.20;;;;;;;;;;5026319;28;58374;-77
2024/02/25 07:32:09;;;;;;;0.10;0.10;;;;;;;;;;5015547;28;59647;-77
2024/02/25 07:34:34;;;;;;;0.20;0.20;;;;;;;;;;5017950;28;58787;-77
2024/02/25 07:36:59;;;;;;;0.30;0.22;;;;;;;;;;5011259;28;58311;-77
2024/02/25 07:39:25;;;;;;;0.17;0.17;;;;;;;;;;5009132;28;59965;-77
2024/02/25 07:41:50;;;;;;;0.30;0.20;;;;;;;;;;5012831;28;58582;-77
2024/02/25 07:44:15;;;;;;;0.30;0.20;;;;;;;;;;5015765;28;59223;-77
2024/02/25 07:46:41;;;;;;;0.03;0.03;;;;;;;;;;5008434;28;58799;-76
2024/02/25 07:49:06;;;;;;;0.10;0.10;;;;;;;;;;5022578;28;58399;-77
2024/02/25 07:51:34;;;;;;;0.10;0.10;;;;;;;;;;5023751;28;59807;-76
2024/02/25 07:54:00;;;;;;;0.10;0.10;;;;;;;;;;5025665;28;59066;-77
2024/02/25 07:56:27;;;;;;;0.10;0.10;;;;;;;;;;5015750;28;58462;-77
2024/02/25 07:58:52;;;;;;;0.10;0.10;;;;;;;;;;5013454;28;59918;-75
2024/02/25 08:01:17;;;;;;;0.30;0.20;;;;;;;;;;5024570;28;58386;-76
2024/02/25 08:03:42;;;;;;;0.17;0.10;;;;;;;;;;5017464;28;59477;-77
2024/02/25 08:06:07;;;;;;;0.00;0.00;;;;;;;;;;5013060;28;58768;-77
2024/02/25 08:08:32;;;;;;;0.15;0.10;;;;;;;;;;5018130;28;58451;-77
2024/02/25 08:10:58;;;;;;;0.10;0.10;;;;;;;;;;5017124;28;60098;-72
2024/02/25 08:13:23;;;;;;;0.20;0.20;;;;;;;;;;5020922;28;59670;-73
2024/02/25 08:15:48;;;;;;;0.10;0.10;;;;;;;;;;5022718;28;58386;-73
2024/02/25 08:18:13;;;;;;;0.40;0.20;;;;;;;;;;5025887;28;60326;-73
2024/02/25 08:20:39;;;;;;;0.10;0.10;;;;;;;;;;5026512;28;58676;-72
2024/02/25 08:23:04;;;;;;;0.27;0.27;;;;;;;;;;5017918;28;61098;-73
2024/02/25 08:25:29;;;;;;;0.23;0.20;;;;;;;;;;5022955;28;59527;-72
2024/02/25 08:27:54;;;;;;;0.20;0.10;;;;;;;;;;5017339;28;58592;-73
2024/02/25 08:30:22;;;;;;;0.20;0.20;;;;;;;;;;5018500;28;60211;-72
2024/02/25 08:32:47;;;;;;;0.15;0.10;;;;;;;;;;5025458;28;58388;-73
2024/02/25 08:35:12;;;;;;;0.20;0.20;;;;;;;;;;5025456;28;58397;-72
2024/02/25 08:37:38;;;;;;;0.47;0.10;;;;;;;;;;5007989;28;59352;-72
2024/02/25 08:40:03;;;;;;;0.30;0.20;;;;;;;;;;5017150;28;58665;-72
2024/02/25 08:42:28;;;;;;;0.25;0.20;;;;;;;;;;5027275;28;58399;-72
2024/02/25 08:44:53;;;;;;;0.15;0.15;;;;;;;;;;5021417;28;59887;-73
2024/02/25 08:47:18;;;;;;;0.20;0.20;;;;;;;;;;5026598;28;58350;-73
2024/02/25 08:49:44;;;;;;;0.25;0.20;;;;;;;;;;5017358;28;59249;-73
2024/02/25 08:52:09;;;;;;;0.10;0.10;;;;;;;;;;5021096;28;58383;-73
2024/02/25 08:54:38;;;;;;;0.20;0.20;;;;;;;;;;5024817;28;58598;-72
2024/02/25 08:57:05;;;;;;;0.10;0.00;;;;;;;;;;5023915;28;59501;-72
2024/02/25 08:59:30;;;;;;;0.10;0.10;;;;;;;;;;5012832;28;59632;-73
2024/02/25 09:01:55;;;;;;;0.15;0.13;;;;;;;;;;5008668;28;58361;-72
2024/02/25 09:04:24;;;;;;;0.35;0.32;;;;;;;;;;5018542;28;59156;-72
2024/02/25 09:06:49;;;;;;;0.17;0.17;;;;;;;;;;5025017;28;58472;-73
2024/02/25 09:09:14;;;;;;;0.10;0.10;;;;;;;;;;5020749;28;59215;-72
2024/02/25 09:11:41;;;;;;;0.30;0.10;;;;;;;;;;5001874;28;59797;-73
2024/02/25 09:14:06;;;;;;;0.10;0.10;;;;;;;;;;5012068;28;58428;-72
2024/02/25 09:16:31;;;;;;;0.20;0.20;;;;;;;;;;5011658;28;59440;-73
2024/02/25 09:18:56;;;;;;;0.20;0.20;;;;;;;;;;5002741;28;59257;-72
2024/02/25 09:21:21;;;;;;;0.17;0.17;;;;;;;;;;5008662;28;58554;-75
2024/02/25 09:23:46;;;;;;;0.10;0.10;;;;;;;;;;5024801;28;59807;-77
2024/02/25 09:26:12;;;;;;;0.10;0.10;;;;;;;;;;5015002;28;58400;-77
2024/02/25 09:28:37;;;;;;;0.80;0.20;;;;;;;;;;5014965;28;59395;-76
2024/02/25 09:31:03;;;;;;;0.15;0.15;;;;;;;;;;5020215;28;58713;-77
2024/02/25 09:33:30;;;;;;;0.20;0.20;;;;;;;;;;5023744;28;58366;-77
2024/02/25 09:35:55;;;;;;;0.22;0.22;;;;;;;;;;5030719;28;59872;-77
2024/02/25 09:38:22;;;;;;;0.30;0.20;;;;;;;;;;5018739;28;58961;-77
2024/02/25 09:40:47;;;;;;;0.50;0.30;;;;;;;;;;5027052;28;58250;-76
2024/02/25 09:43:13;;;;;;;0.40;0.30;;;;;;;;;;5026492;28;58524;-78
2024/02/25 09:45:40;;;;;;;0.15;0.15;;;;;;;;;;5027548;28;58465;-78
2024/02/25 09:48:06;;;;;;;0.95;0.15;;;;;;;;;;5029054;28;59408;-77
2024/02/25 09:50:33;;;;;;;0.28;0.20;;;;;;;;;;5015983;28;58861;-77
2024/02/25 09:52:59;;;;;;;0.40;0.30;;;;;;;;;;5027847;28;58390;-76
2024/02/25 09:55:24;;;;;;;0.13;0.13;;;;;;;;;;5030940;27;59201;-76
2024/02/25 09:57:50;;;;;;;0.40;0.40;;;;;;;;;;5027347;28;58890;-77
2024/02/25 10:00:15;;;;;;;0.17;0.13;;;;;;;;;;5027795;28;58282;-81
2024/02/25 10:02:40;;;;;;;0.10;0.10;;;;;;;;;;5018340;28;60002;-79
2024/02/25 10:05:06;;;;;;;0.38;0.20;;;;;;;;;;5027329;28;58733;-78
2024/02/25 10:07:31;;;;;;;0.10;0.10;;;;;;;;;;5019080;28;58400;-79
2024/02/25 10:09:56;;;;;;;0.10;0.10;;;;;;;;;;5020906;28;60789;-78
2024/02/25 10:12:22;;;;;;;1.05;0.50;;;;;;;;;;5018321;28;58516;-78
2024/02/25 10:14:51;;;;;;;0.10;0.10;;;;;;;;;;5030178;28;59316;-78
2024/02/25 10:17:16;;;;;;;0.25;0.15;;;;;;;;;;5019930;28;64821;-78
2024/02/25 10:19:50;;;;;;;0.50;0.20;;;;;;;;;;5019705;28;58500;-73
2024/02/25 10:22:16;;;;;;;0.10;0.10;;;;;;;;;;5016281;28;59409;-71
2024/02/25 10:24:43;;;;;;;0.28;0.20;;;;;;;;;;5016782;28;59080;-71
2024/02/25 10:27:11;;;;;;;0.28;0.20;;;;;;;;;;5016787;28;58401;-72
2024/02/25 10:29:55;;;;;;;0.10;0.10;;;;;;;;;;5017773;28;59542;-73
2024/02/25 10:32:21;;;;;;;0.20;0.20;;;;;;;;;;5008788;28;58411;-73
2024/02/25 10:34:47;;;;;;;0.30;0.20;;;;;;;;;;5017397;28;59501;-72
2024/02/25 10:37:12;;;;;;;0.20;0.20;;;;;;;;;;5010677;28;59484;-73
2024/02/25 10:39:38;;;;;;;0.40;0.40;;;;;;;;;;5009400;28;58513;-72
2024/02/25 10:42:03;;;;;;;0.10;0.10;;;;;;;;;;5017925;28;60188;-72
2024/02/25 10:44:28;;;;;;;0.27;0.27;;;;;;;;;;5018546;28;58660;-74
2024/02/25 10:46:54;;;;;;;0.15;0.15;;;;;;;;;;5016652;28;58529;-74
2024/02/25 10:49:20;;;;;;;0.08;0.08;;;;;;;;;;5023931;28;59610;-73
2024/02/25 10:51:45;;;;;;;0.10;0.10;;;;;;;;;;5030734;28;58817;-73
2024/02/25 10:54:12;;;;;;;0.10;0.10;;;;;;;;;;5026811;28;59176;-72
2024/02/25 10:56:39;;;;;;;0.20;0.20;;;;;;;;;;5016284;28;59900;-72
2024/02/25 10:59:07;;;;;;;0.30;0.30;;;;;;;;;;5019482;28;58421;-72
2024/02/25 11:01:32;;;;;;;0.17;0.17;;;;;;;;;;5016516;28;58898;-73
2024/02/25 11:03:57;;;;;;;0.10;0.10;;;;;;;;;;5018025;28;59584;-73
2024/02/25 11:06:32;;;;;;;0.10;0.10;;;;;;;;;;5023444;28;58513;-73
2024/02/25 11:09:05;;;;;;;0.15;0.15;;;;;;;;;;5015539;28;59338;-72
2024/02/25 11:11:30;;;;;;;0.35;0.30;;;;;;;;;;5026712;28;58887;-73
2024/02/25 11:13:57;;;;;;;0.20;0.20;;;;;;;;;;5029453;28;58255;-72
2024/02/25 11:16:28;;;;;;;0.20;0.20;;;;;;;;;;5027522;28;58652;-72
2024/02/25 11:18:56;;;;;;;0.15;0.15;;;;;;;;;;5028601;28;58375;-73
2024/02/25 11:21:21;;;;;;;0.10;0.10;;;;;;;;;;5025705;28;58421;-72
2024/02/25 11:23:47;;;;;;;0.17;0.17;;;;;;;;;;5027731;28;58717;-72
2024/02/25 11:26:31;;;;;;;0.20;0.20;;;;;;;;;;5026539;28;58380;-73
2024/02/25 11:29:12;;;;;;;0.40;0.10;;;;;;;;;;5029439;28;59304;-72
2024/02/25 11:31:55;;;;;;;0.30;0.30;;;;;;;;;;5024232;28;59667;-73
2024/02/25 11:34:24;;;;;;;0.20;0.20;;;;;;;;;;5027974;28;58373;-73
2024/02/25 11:36:56;;;;;;;0.20;0.20;;;;;;;;;;5023988;28;58795;-72
2024/02/25 11:39:22;;;;;;;0.13;0.13;;;;;;;;;;5029430;28;58507;-76
2024/02/25 11:41:51;;;;;;;0.20;0.20;;;;;;;;;;5025298;28;59714;-74
2024/02/25 11:44:17;;;;;;;0.10;0.10;;;;;;;;;;5007852;28;63379;-73
2024/02/25 11:46:42;;;;;;;0.10;0.10;;;;;;;;;;5020499;28;58412;-73
2024/02/25 11:49:08;;;;;;;0.27;0.10;;;;;;;;;;5026032;28;59633;-73
2024/02/25 11:51:33;;;;;;;0.08;0.08;;;;;;;;;;5022766;28;59878;-73
2024/02/25 11:53:59;;;;;;;0.10;0.10;;;;;;;;;;5027276;28;58417;-73
2024/02/25 11:56:24;;;;;;;0.13;0.13;;;;;;;;;;5027057;28;60203;-73
2024/02/25 11:58:50;;;;;;;0.17;0.17;;;;;;;;;;5015773;28;58415;-73
2024/02/25 12:01:15;;;;;;;0.22;0.22;;;;;;;;;;5021549;28;58467;-73
2024/02/25 12:03:40;;;;;;;0.20;0.20;;;;;;;;;;5020333;28;58658;-73
2024/02/25 12:06:05;;;;;;;0.37;0.37;;;;;;;;;;5013781;28;58421;-77
2024/02/25 12:08:31;;;;;;;0.40;0.40;;;;;;;;;;5026938;28;58526;-77
2024/02/25 12:10:57;;;;;;;0.30;0.30;;;;;;;;;;5007138;28;59007;-75
2024/02/25 12:13:22;;;;;;;0.80;0.40;;;;;;;;;;5005118;28;58364;-76
2024/02/25 12:15:48;;;;;;;1.17;0.43;;;;;;;;;;5007121;28;59693;-76
2024/02/25 12:18:13;;;;;;;0.30;0.30;;;;;;;;;;5013679;28;58991;-76
2024/02/25 12:20:40;;;;;;;0.77;0.43;;;;;;;;;;5013872;28;60689;-75
2024/02/25 12:23:06;;;;;;;1.35;0.20;;;;;;;;;;5007192;28;58587;-76
2024/02/25 12:25:32;;;;;;;3.63;0.50;;;;;;;;;;5005714;28;58385;-76
2024/02/25 12:28:07;;;;;;;1.48;0.40;;;;;;;;;;5005049;28;60328;-75
2024/02/25 12:30:35;;;;;;;0.70;0.47;;;;;;;;;;5006179;28;58957;-74
2024/02/25 12:33:02;;;;;;;0.97;0.50;;;;;;;;;;5010274;28;58489;-74
2024/02/25 12:35:27;;;;;;;0.88;0.40;;;;;;;;;;5026935;28;60188;-73
2024/02/25 12:37:52;;;;;;;1.20;0.33;;;;;;;;;;5016057;28;59907;-73
2024/02/25 12:40:18;;;;;;;0.57;0.30;;;;;;;;;;5016834;28;58410;-76
2024/02/25 12:42:48;;;;;;;1.67;0.50;;;;;;;;;;5014922;28;59997;-76
2024/02/25 12:45:13;;;;;;;0.45;0.30;;;;;;;;;;5016009;28;58408;-76
2024/02/25 12:47:38;;;;;;;0.90;0.80;;;;;;;;;;5026039;28;59945;-77
2024/02/25 12:50:03;;;;;;;0.40;0.40;;;;;;;;;;5015503;28;58663;-76
2024/02/25 12:52:29;;;;;;;1.73;0.50;;;;;;;;;;5020209;28;58374;-77
2024/02/25 12:54:54;;;;;;;4.47;0.82;;;;;;;;;;5015533;28;60561;-77
2024/02/25 12:57:19;;;;;;;0.40;0.30;;;;;;;;;;5009310;28;58843;-77
2024/02/25 12:59:44;;;;;;;0.90;0.40;;;;;;;;;;5016750;28;58725;-77
2024/02/25 13:02:10;;;;;;;0.90;0.70;;;;;;;;;;5031091;28;59381;-78
2024/02/25 13:04:35;;;;;;;1.75;0.47;;;;;;;;;;5024941;28;58394;-75
2024/02/25 13:07:01;;;;;;;2.17;0.50;;;;;;;;;;5022695;28;58755;-76
2024/02/25 13:09:26;;;;;;;0.40;0.40;;;;;;;;;;5029227;28;58734;-77
2024/02/25 13:11:51;;;;;;;0.35;0.35;;;;;;;;;;5029196;28;58368;-76
2024/02/25 13:14:17;;;;;;;1.07;0.30;;;;;;;;;;5030804;28;59756;-76
2024/02/25 13:16:42;;;;;;;0.20;0.20;;;;;;;;;;5028699;28;58821;-76
2024/02/25 13:19:07;;;;;;;0.50;0.30;;;;;;;;;;5023903;28;58409;-76
2024/02/25 13:21:32;;;;;;;0.23;0.23;;;;;;;;;;5017614;28;59422;-76
2024/02/25 13:23:57;;;;;;;0.50;0.35;;;;;;;;;;5014251;28;58693;-76
2024/02/25 13:26:23;;;;;;;0.50;0.30;;;;;;;;;;5015578;28;58439;-76
2024/02/25 13:28:48;;;;;;;0.33;0.27;;;;;;;;;;5013905;28;58780;-79
2024/02/25 13:31:13;;;;;;;0.60;0.40;;;;;;;;;;5020209;28;58365;-79
2024/02/25 13:33:41;;;;;;;0.73;0.70;;;;;;;;;;5024300;28;59415;-79
2024/02/25 13:36:07;;;;;;;0.93;0.40;;;;;;;;;;5015181;28;59128;-79
2024/02/25 13:38:32;;;;;;;1.67;0.60;;;;;;;;;;5018488;28;58414;-80
2024/02/25 13:40:59;;;;;;;2.57;0.40;;;;;;;;;;5017222;28;60893;-79
2024/02/25 13:43:24;;;;;;;0.47;0.47;;;;;;;;;;5015259;28;58979;-80
2024/02/25 13:45:50;;;;;;;1.50;0.63;;;;;;;;;;5020826;28;58664;-80
2024/02/25 13:48:15;;;;;;;4.25;0.47;;;;;;;;;;5024521;28;58822;-80
2024/02/25 13:50:41;;;;;;;0.70;0.40;;;;;;;;;;5018722;28;58443;-79
2024/02/25 13:53:06;;;;;;;1.42;1.13;;;;;;;;;;5026279;28;59410;-79
2024/02/25 13:55:31;;;;;;;1.53;0.73;;;;;;;;;;5027738;28;58979;-79
2024/02/25 13:57:57;;;;;;;0.85;0.55;;;;;;;;;;5017761;28;58460;-78
2024/02/25 14:00:23;;;;;;;2.80;0.50;;;;;;;;;;5012341;28;58378;-75
2024/02/25 14:02:48;;;;;;;0.65;0.65;;;;;;;;;;5013937;28;59183;-74
2024/02/25 14:05:13;;;;;;;5.30;0.70;;;;;;;;;;5019255;28;58579;-73
2024/02/25 14:07:38;;;;;;;1.37;0.80;;;;;;;;;;5012533;28;60321;-74
2024/02/25 14:10:05;;;;;;;0.50;0.50;;;;;;;;;;5024406;28;59784;-74
2024/02/25 14:12:30;;;;;;;0.90;0.52;;;;;;;;;;5021773;28;60219;-76
2024/02/25 14:14:55;;;;;;;0.80;0.70;;;;;;;;;;5018186;28;60112;-77
2024/02/25 14:17:21;;;;;;;2.00;0.40;;;;;;;;;;5016042;28;58595;-75
2024/02/25 14:19:46;;;;;;;0.90;0.70;;;;;;;;;;5017138;28;60209;-77
2024/02/25 14:22:11;;;;;;;1.87;1.13;;;;;;;;;;5024694;28;58449;-77
2024/02/25 14:24:36;;;;;;;1.60;0.40;;;;;;;;;;5023428;28;58394;-75
2024/02/25 14:27:02;;;;;;;0.70;0.70;;;;;;;;;;5018129;28;59490;-73
2024/02/25 14:29:27;;;;;;;0.50;0.47;;;;;;;;;;5016194;28;58463;-75
2024/02/25 14:31:52;;;;;;;2.23;0.30;;;;;;;;;;5026155;28;61100;-74
2024/02/25 14:34:19;;;;;;;4.33;0.60;;;;;;;;;;5027011;28;60160;-74